createdAt,value
2022-07-27T00:03:01.664Z,958
2022-07-27T00:08:03.293Z,958
2022-07-27T00:13:04.902Z,958
2022-07-27T00:18:06.546Z,958
2022-07-27T00:23:08.155Z,958
2022-07-27T00:28:09.904Z,958
2022-07-27T00:33:11.483Z,958
2022-07-27T00:38:18.901Z,958
2022-07-27T00:43:20.535Z,958
2022-07-27T00:48:22.321Z,958
2022-07-27T00:53:26.135Z,958
2022-07-27T00:58:27.790Z,958
2022-07-27T01:03:30.024Z,958
2022-07-27T01:08:31.705Z,958
2022-07-27T01:13:33.540Z,958
2022-07-27T01:18:35.174Z,958
2022-07-27T01:23:36.802Z,958
2022-07-27T01:28:38.414Z,958
2022-07-27T01:33:40.112Z,958
2022-07-27T01:38:41.730Z,958
2022-07-27T01:43:43.335Z,958
2022-07-27T01:48:44.959Z,958
2022-07-27T01:53:46.684Z,957
2022-07-27T01:58:48.273Z,958
2022-07-27T02:03:49.896Z,958
2022-07-27T02:08:51.601Z,958
2022-07-27T02:13:53.206Z,958
2022-07-27T02:18:54.779Z,958
2022-07-27T02:23:56.363Z,958
2022-07-27T02:28:58.180Z,958
2022-07-27T02:33:59.785Z,958
2022-07-27T02:39:01.412Z,958
2022-07-27T02:44:03.005Z,958
2022-07-27T02:49:04.802Z,958
2022-07-27T02:54:06.504Z,958
2022-07-27T02:59:08.349Z,958
2022-07-27T03:04:10.174Z,958
2022-07-27T03:09:12.220Z,958
2022-07-27T03:14:14.003Z,958
2022-07-27T03:19:16.961Z,958
2022-07-27T03:24:18.565Z,958
2022-07-27T03:29:20.132Z,958
2022-07-27T03:34:21.743Z,958
2022-07-27T03:39:23.340Z,958
2022-07-27T03:44:24.933Z,959
2022-07-27T03:49:26.575Z,959
2022-07-27T03:54:28.205Z,959
2022-07-27T03:59:29.819Z,959
2022-07-27T04:04:31.421Z,959
2022-07-27T04:09:33.008Z,959
2022-07-27T04:14:34.783Z,959
2022-07-27T04:19:36.405Z,959
2022-07-27T04:24:38.079Z,959
2022-07-27T04:29:39.725Z,959
2022-07-27T04:34:41.371Z,959
2022-07-27T04:39:43.004Z,959
2022-07-27T04:44:44.616Z,959
2022-07-27T04:49:46.232Z,959
2022-07-27T04:54:47.824Z,959
2022-07-27T04:59:49.432Z,959
2022-07-27T05:04:51.955Z,959
2022-07-27T05:09:53.559Z,959
2022-07-27T05:14:55.180Z,960
2022-07-27T05:19:56.833Z,960
2022-07-27T05:24:58.427Z,960
2022-07-27T05:30:00.086Z,960
2022-07-27T05:35:01.816Z,960
2022-07-27T05:40:03.446Z,960
2022-07-27T05:45:05.048Z,960
2022-07-27T05:50:06.832Z,960
2022-07-27T05:55:08.525Z,960
2022-07-27T06:00:10.131Z,960
2022-07-27T06:05:15.522Z,960
2022-07-27T06:10:17.882Z,960
2022-07-27T06:15:19.662Z,960
2022-07-27T06:20:21.237Z,960
2022-07-27T06:25:22.870Z,960
2022-07-27T06:30:35.601Z,960
2022-07-27T06:35:38.971Z,960
2022-07-27T06:40:40.985Z,960
2022-07-27T06:45:42.765Z,960
2022-07-27T06:50:44.354Z,960
2022-07-27T06:55:45.947Z,960
2022-07-27T07:00:47.774Z,960
2022-07-27T07:05:49.461Z,961
2022-07-27T07:10:51.071Z,961
2022-07-27T07:15:52.715Z,961
2022-07-27T07:20:54.414Z,961
2022-07-27T07:25:56.000Z,961
2022-07-27T07:30:57.664Z,961
2022-07-27T07:36:13.384Z,961
2022-07-27T07:41:16.114Z,961
2022-07-27T07:46:17.747Z,961
2022-07-27T07:51:19.376Z,961
2022-07-27T07:56:20.941Z,961
2022-07-27T08:01:22.608Z,961
2022-07-27T08:06:24.284Z,961
2022-07-27T08:11:25.863Z,961
2022-07-27T08:16:27.553Z,961
2022-07-27T08:21:35.263Z,961
2022-07-27T08:26:37.229Z,961
2022-07-27T08:31:52.181Z,961
2022-07-27T08:36:54.956Z,961
2022-07-27T08:41:56.554Z,961
2022-07-27T08:46:58.278Z,961
2022-07-27T08:51:59.930Z,961
2022-07-27T08:57:01.556Z,961
2022-07-27T09:02:03.659Z,962
2022-07-27T09:07:05.505Z,962
2022-07-27T09:12:07.024Z,962
2022-07-27T09:17:47.212Z,962
2022-07-27T09:22:49.949Z,962
2022-07-27T09:27:51.553Z,962
2022-07-27T09:32:53.171Z,962
2022-07-27T09:37:54.781Z,962
2022-07-27T09:43:19.934Z,962
2022-07-27T09:48:54.452Z,962
2022-07-27T09:53:56.125Z,962
2022-07-27T09:58:57.719Z,962
2022-07-27T10:03:59.294Z,962
2022-07-27T10:09:00.907Z,962
2022-07-27T10:14:02.596Z,962
2022-07-27T10:19:08.395Z,962
2022-07-27T10:24:10.664Z,962
2022-07-27T10:29:12.591Z,962
2022-07-27T10:34:14.465Z,962
2022-07-27T10:39:16.336Z,962
2022-07-27T10:44:18.031Z,962
2022-07-27T10:49:19.752Z,962
2022-07-27T10:54:21.459Z,962
2022-07-27T10:59:23.126Z,962
2022-07-27T11:04:24.895Z,962
2022-07-27T11:14:58.329Z,962
2022-07-27T11:19:59.966Z,962
2022-07-27T11:25:01.659Z,962
2022-07-27T11:30:03.240Z,963
2022-07-27T11:35:09.059Z,963
2022-07-27T11:40:42.257Z,963
2022-07-27T11:45:55.869Z,963
2022-07-27T11:50:58.969Z,963
2022-07-27T11:56:00.583Z,963
2022-07-27T12:01:02.437Z,963
2022-07-27T12:06:04.060Z,963
2022-07-27T12:11:05.729Z,963
2022-07-27T12:16:07.333Z,963
2022-07-27T12:21:08.911Z,963
2022-07-27T12:26:10.484Z,963
2022-07-27T12:31:12.215Z,963
2022-07-27T12:36:14.098Z,963
2022-07-27T12:41:15.694Z,963
2022-07-27T12:46:17.388Z,963
2022-07-27T12:51:19.134Z,963
2022-07-27T12:56:27.358Z,963
2022-07-27T13:01:29.613Z,963
2022-07-27T13:06:31.262Z,963
2022-07-27T13:11:32.848Z,963
2022-07-27T13:16:34.518Z,964
2022-07-27T13:21:36.192Z,964
2022-07-27T13:26:37.802Z,964
2022-07-27T13:31:42.363Z,964
2022-07-27T13:36:46.973Z,964
2022-07-27T13:41:48.610Z,964
2022-07-27T13:46:50.266Z,964
2022-07-27T13:51:53.241Z,964
2022-07-27T13:56:54.867Z,964
2022-07-27T14:01:56.622Z,964
2022-07-27T14:06:58.519Z,964
2022-07-27T14:12:00.161Z,964
2022-07-27T14:17:01.766Z,964
2022-07-27T14:22:06.633Z,964
2022-07-27T14:27:08.244Z,964
2022-07-27T14:32:09.928Z,964
2022-07-27T14:37:12.856Z,964
2022-07-27T14:42:14.474Z,964
2022-07-27T14:47:16.164Z,964
2022-07-27T14:52:17.761Z,964
2022-07-27T14:57:19.444Z,964
2022-07-27T15:02:21.126Z,964
2022-07-27T15:07:22.853Z,964
2022-07-27T15:12:24.449Z,964
2022-07-27T15:17:26.129Z,964
2022-07-27T15:22:27.721Z,964
2022-07-27T15:27:29.391Z,964
2022-07-27T15:32:31.028Z,964
2022-07-27T15:37:33.152Z,964
2022-07-27T15:42:37.781Z,964
2022-07-27T15:47:39.832Z,964
2022-07-27T15:52:41.528Z,964
2022-07-27T15:57:43.145Z,964
2022-07-27T16:02:44.766Z,964
2022-07-27T16:07:46.447Z,963
2022-07-27T16:12:48.126Z,963
2022-07-27T16:17:50.217Z,963
2022-07-27T16:22:51.824Z,963
2022-07-27T16:27:53.452Z,963
2022-07-27T16:32:55.064Z,963
2022-07-27T16:37:56.742Z,963
2022-07-27T16:42:58.550Z,963
2022-07-27T16:48:00.136Z,963
2022-07-27T16:53:01.761Z,963
2022-07-27T16:58:04.984Z,963
2022-07-27T17:03:06.659Z,963
2022-07-27T17:08:08.281Z,963
2022-07-27T17:13:13.552Z,963
2022-07-27T17:18:15.472Z,963
2022-07-27T17:23:17.044Z,963
2022-07-27T17:28:18.627Z,963
2022-07-27T17:33:20.393Z,963
2022-07-27T17:38:21.984Z,963
2022-07-27T17:43:23.684Z,963
2022-07-27T17:48:25.385Z,963
2022-07-27T17:53:26.990Z,963
2022-07-27T17:58:30.231Z,963
2022-07-27T18:03:32.136Z,963
2022-07-27T18:08:33.721Z,962
2022-07-27T18:13:37.992Z,962
2022-07-27T18:18:41.588Z,962
2022-07-27T18:23:43.202Z,962
2022-07-27T18:28:45.051Z,962
2022-07-27T18:33:48.854Z,962
2022-07-27T18:38:50.490Z,962
2022-07-27T18:43:52.141Z,962
2022-07-27T18:48:53.826Z,962
2022-07-27T18:53:55.486Z,962
2022-07-27T18:58:57.084Z,962
2022-07-27T19:03:58.818Z,962
2022-07-27T19:09:00.475Z,962
2022-07-27T19:14:02.149Z,962
2022-07-27T19:19:03.823Z,962
2022-07-27T19:24:05.394Z,962
2022-07-27T19:29:08.906Z,962
2022-07-27T19:34:10.693Z,962
2022-07-27T19:39:12.627Z,962
2022-07-27T19:44:17.845Z,961
2022-07-27T19:49:22.203Z,961
2022-07-27T19:54:23.844Z,961
2022-07-27T19:59:25.452Z,961
2022-07-27T20:04:27.058Z,961
2022-07-27T20:09:28.712Z,961
2022-07-27T20:14:30.292Z,961
2022-07-27T20:19:31.926Z,961
2022-07-27T20:24:33.547Z,961
2022-07-27T20:29:35.147Z,961
2022-07-27T20:34:36.741Z,961
2022-07-27T20:39:38.311Z,961
2022-07-27T20:44:39.913Z,961
2022-07-27T20:49:41.498Z,961
2022-07-27T20:54:43.407Z,961
2022-07-27T20:59:45.049Z,961
2022-07-27T21:04:46.864Z,961
2022-07-27T21:09:48.473Z,961
2022-07-27T21:14:50.085Z,960
2022-07-27T21:19:51.655Z,960
2022-07-27T21:24:54.269Z,960
2022-07-27T21:29:55.953Z,960
2022-07-27T21:34:57.561Z,960
2022-07-27T21:39:59.175Z,960
2022-07-27T21:45:00.759Z,960
2022-07-27T21:50:02.350Z,960
2022-07-27T21:55:04.041Z,960
2022-07-27T22:00:05.647Z,960
2022-07-27T22:05:07.247Z,960
2022-07-27T22:10:08.984Z,960
2022-07-27T22:15:10.556Z,960
2022-07-27T22:20:12.180Z,960
2022-07-27T22:25:13.786Z,960
2022-07-27T22:30:15.445Z,960
2022-07-27T22:35:17.084Z,960
2022-07-27T22:40:18.683Z,960
2022-07-27T22:45:20.342Z,960
2022-07-27T22:50:21.971Z,960
2022-07-27T22:55:23.601Z,960
2022-07-27T23:00:25.261Z,960
2022-07-27T23:05:27.213Z,959
2022-07-27T23:10:30.843Z,959
2022-07-27T23:15:32.777Z,959
2022-07-27T23:20:34.352Z,959
2022-07-27T23:25:36.519Z,959
2022-07-27T23:30:38.254Z,959
2022-07-27T23:35:39.875Z,959
2022-07-27T23:40:41.488Z,959
2022-07-27T23:45:43.112Z,959
2022-07-27T23:50:44.715Z,959
2022-07-27T23:55:48.941Z,959
